Time;durP1;ratioP1;P1;durP2;ratioP2;P2;SDS_P1;SDS_P2;PMS_P1;PMS_P2;Temp;Humidity;BMP_temperature;BMP_pressure;BME280_temperature;BME280_humidity;BME280_pressure;Samples;Min_cycle;Max_cycle;Signal;HPM_P1;HPM_P2
2023/10/30 00:01:16;;;;;;;11.70;2.80;;;;;;;11.73;93.96;99228.90;108525;1272;23901;-79
2023/10/30 00:03:45;;;;;;;14.70;2.80;;;;;;;11.69;93.88;99243.50;108424;1272;24490;-79
2023/10/30 00:06:13;;;;;;;10.70;2.90;;;;;;;11.65;94.18;99237.44;108448;1269;22563;-79
2023/10/30 00:08:41;;;;;;;12.90;2.90;;;;;;;11.64;94.13;99236.48;108391;1272;22551;-79
2023/10/30 00:11:09;;;;;;;13.40;2.60;;;;;;;11.60;94.01;99246.55;108474;1272;22557;-79
2023/10/30 00:13:37;;;;;;;12.20;2.80;;;;;;;11.57;94.03;99254.36;108349;1269;22616;-79
2023/10/30 00:16:09;;;;;;;12.90;2.70;;;;;;;11.55;94.22;99257.56;110600;1272;181738;-79
2023/10/30 00:18:39;;;;;;;10.60;2.60;;;;;;;11.55;94.07;99251.12;110662;1269;22275;-79
2023/10/30 00:21:07;;;;;;;9.70;2.30;;;;;;;11.53;94.21;99249.03;110663;1269;22207;-80
2023/10/30 00:23:35;;;;;;;9.80;2.20;;;;;;;11.52;94.12;99256.87;110668;1272;23010;-79
2023/10/30 00:26:03;;;;;;;11.60;2.80;;;;;;;11.50;94.19;99258.80;110713;1266;23134;-79
2023/10/30 00:28:33;;;;;;;9.50;2.90;;;;;;;11.50;94.28;99248.95;110755;1272;22920;-80
2023/10/30 00:31:01;;;;;;;15.90;2.30;;;;;;;11.50;94.26;99253.45;110712;1267;22277;-79
2023/10/30 00:33:30;;;;;;;13.00;2.80;;;;;;;11.48;94.27;99256.45;110733;1272;22400;-79
2023/10/30 00:35:58;;;;;;;11.70;2.80;;;;;;;11.46;94.31;99269.33;110738;1272;22467;-79
2023/10/30 00:38:26;;;;;;;14.00;3.10;;;;;;;11.45;94.32;99269.63;110757;1272;22901;-79
2023/10/30 00:40:56;;;;;;;11.20;2.50;;;;;;;11.43;94.59;99271.11;110699;1272;22173;-79
2023/10/30 00:43:24;;;;;;;13.90;3.10;;;;;;;11.43;94.77;99264.34;110823;1272;22208;-79
2023/10/30 00:45:52;;;;;;;11.80;3.60;;;;;;;11.45;94.89;99249.45;110782;1266;22178;-80
2023/10/30 00:48:22;;;;;;;17.60;5.50;;;;;;;11.44;94.95;99250.92;110574;1273;22979;-79
2023/10/30 00:50:50;;;;;;;18.80;5.70;;;;;;;11.42;95.04;99257.79;110772;1269;22386;-79
2023/10/30 00:53:18;;;;;;;17.70;5.10;;;;;;;11.43;95.14;99249.30;110783;1272;22907;-80
2023/10/30 00:55:50;;;;;;;21.20;4.90;;;;;;;11.42;95.10;99260.89;110705;1272;22182;-79
2023/10/30 00:58:19;;;;;;;20.80;5.80;;;;;;;11.42;95.34;99264.14;110728;1272;23124;-79
2023/10/30 01:00:47;;;;;;;19.30;5.30;;;;;;;11.37;95.28;99266.83;110807;1272;22371;-79
2023/10/30 01:03:19;;;;;;;26.40;6.80;;;;;;;11.32;95.36;99264.54;110742;1272;22183;-79
2023/10/30 01:05:55;;;;;;;21.30;5.90;;;;;;;11.34;95.68;99258.80;110814;1269;22179;-79
2023/10/30 01:08:23;;;;;;;19.50;5.20;;;;;;;11.35;95.79;99255.10;110733;1272;22198;-79
2023/10/30 01:10:52;;;;;;;26.90;8.20;;;;;;;11.36;95.73;99243.50;110760;1272;22388;-79
2023/10/30 01:13:20;;;;;;;25.70;10.20;;;;;;;11.37;95.83;99241.52;110758;1272;22199;-79
2023/10/30 01:15:51;;;;;;;18.80;6.50;;;;;;;11.39;95.95;99246.35;110839;1272;22353;-80
2023/10/30 01:18:19;;;;;;;24.70;6.60;;;;;;;11.39;96.02;99245.48;110711;1272;22178;-79
2023/10/30 01:20:48;;;;;;;20.30;5.00;;;;;;;11.37;96.09;99241.92;110746;1272;22179;-79
2023/10/30 01:23:16;;;;;;;20.20;5.10;;;;;;;11.38;96.21;99237.81;110868;1272;22215;-80
2023/10/30 01:25:46;;;;;;;19.60;5.50;;;;;;;11.41;96.31;99237.66;110948;1272;22111;-79
2023/10/30 01:28:14;;;;;;;15.70;5.40;;;;;;;11.44;96.38;99239.02;110995;1272;22266;-79
2023/10/30 01:30:43;;;;;;;25.30;6.00;;;;;;;11.47;96.47;99234.30;110918;1272;22181;-79
2023/10/30 01:33:12;;;;;;;20.30;5.90;;;;;;;11.48;96.53;99237.55;110846;1272;22180;-80
2023/10/30 01:35:40;;;;;;;18.10;5.00;;;;;;;11.49;96.49;99236.73;110796;1272;22219;-80
2023/10/30 01:38:08;;;;;;;15.20;4.00;;;;;;;11.50;96.54;99231.55;110880;1272;22726;-79
2023/10/30 01:40:36;;;;;;;21.70;4.70;;;;;;;11.50;96.76;99228.98;110874;1269;22217;-79
2023/10/30 01:43:09;;;;;;;13.30;3.10;;;;;;;11.50;96.83;99222.71;110807;1272;22870;-79
2023/10/30 01:45:37;;;;;;;11.70;3.30;;;;;;;11.51;96.77;99223.11;110804;1272;22770;-80
2023/10/30 01:48:06;;;;;;;10.00;2.70;;;;;;;11.51;96.91;99216.56;110821;1272;22332;-79
2023/10/30 01:50:35;;;;;;;13.30;3.00;;;;;;;11.53;96.93;99208.08;110802;1272;22226;-80
2023/10/30 01:53:04;;;;;;;13.30;3.10;;;;;;;11.54;96.82;99196.23;110862;1272;22418;-79
2023/10/30 01:55:33;;;;;;;11.10;2.40;;;;;;;11.54;96.79;99202.64;110875;1272;22235;-80
2023/10/30 01:58:01;;;;;;;11.00;2.40;;;;;;;11.52;96.81;99200.96;110625;1272;22326;-79
2023/10/30 02:00:29;;;;;;;14.30;2.20;;;;;;;11.51;96.80;99199.84;110761;1272;22194;-79
2023/10/30 02:02:58;;;;;;;13.00;2.50;;;;;;;11.50;97.11;99202.65;110842;1272;22457;-80
2023/10/30 02:05:28;;;;;;;15.60;2.90;;;;;;;11.50;97.08;99197.01;110811;1272;22162;-80
2023/10/30 02:07:55;;;;;;;;;;;;;;;11.52;97.13;99200.36;110872;1267;22728;-79
2023/10/30 02:10:24;;;;;;;12.10;2.90;;;;;;;11.52;97.14;99203.16;110780;1272;22183;-80
2023/10/30 02:12:52;;;;;;;21.70;2.90;;;;;;;11.52;97.08;99197.15;110879;1257;22444;-79
2023/10/30 02:15:20;;;;;;;22.50;3.30;;;;;;;11.53;97.14;99198.86;110857;1272;22201;-79
2023/10/30 02:17:48;;;;;;;12.30;2.20;;;;;;;11.52;97.09;99207.63;110983;1272;23020;-80
2023/10/30 02:20:17;;;;;;;14.20;2.30;;;;;;;11.52;97.12;99215.24;110812;1272;22313;-79
2023/10/30 02:22:45;;;;;;;12.90;2.60;;;;;;;11.51;97.25;99215.14;110905;1272;22216;-79
2023/10/30 02:25:13;;;;;;;14.40;3.10;;;;;;;11.51;97.28;99216.87;110882;1272;23452;-81
2023/10/30 02:27:41;;;;;;;31.80;11.70;;;;;;;11.53;97.40;99226.57;110985;1272;22256;-80
2023/10/30 02:30:12;;;;;;;45.70;16.30;;;;;;;11.55;97.37;99232.21;110970;1269;22672;-81
2023/10/30 02:32:42;;;;;;;41.10;15.70;;;;;;;11.55;97.33;99233.33;110965;1272;22160;-80
2023/10/30 02:35:12;;;;;;;39.30;13.60;;;;;;;11.55;97.40;99226.52;110956;1272;22460;-81
2023/10/30 02:37:40;;;;;;;;;;;;;;;11.55;97.38;99233.48;110984;1272;22404;-81
2023/10/30 02:40:10;;;;;;;28.50;9.50;;;;;;;11.53;97.40;99226.32;110929;1272;22702;-81
2023/10/30 02:42:39;;;;;;;25.30;9.20;;;;;;;11.53;97.38;99224.48;110868;1267;22217;-81
2023/10/30 02:45:09;;;;;;;21.80;6.40;;;;;;;11.53;97.35;99225.71;110892;1272;22239;-81
2023/10/30 02:47:37;;;;;;;15.90;4.60;;;;;;;11.52;97.29;99232.33;110735;1267;22656;-80
2023/10/30 02:50:07;;;;;;;15.00;3.60;;;;;;;11.51;97.28;99236.78;110793;1272;22151;-80
2023/10/30 02:52:36;;;;;;;16.90;4.20;;;;;;;11.50;97.19;99240.05;110732;1257;22295;-80
2023/10/30 02:55:05;;;;;;;16.60;4.20;;;;;;;11.50;97.33;99238.88;110734;1272;22204;-80
2023/10/30 02:57:34;;;;;;;9.70;2.50;;;;;;;11.50;97.34;99240.77;110804;1267;22144;-80
2023/10/30 03:00:02;;;;;;;10.60;2.40;;;;;;;11.50;97.37;99235.98;110781;1272;23416;-81
2023/10/30 03:02:30;;;;;;;11.40;1.80;;;;;;;11.48;97.32;99241.77;110786;1272;22258;-80
2023/10/30 03:04:59;;;;;;;10.60;1.30;;;;;;;11.49;97.48;99243.30;110719;1272;22190;-80
2023/10/30 03:07:27;;;;;;;5.20;1.10;;;;;;;11.51;97.39;99242.89;110793;1269;22226;-80
2023/10/30 03:09:55;;;;;;;5.10;0.90;;;;;;;11.55;97.46;99237.30;110726;1271;22209;-80
2023/10/30 03:12:23;;;;;;;6.30;0.90;;;;;;;11.60;97.24;99233.42;110789;1269;23222;-80
2023/10/30 03:14:51;;;;;;;5.60;0.80;;;;;;;11.65;97.28;99235.36;110725;1269;22169;-80
2023/10/30 03:17:19;;;;;;;3.60;0.80;;;;;;;11.70;97.16;99241.33;110787;1267;22387;-81
2023/10/30 03:19:48;;;;;;;6.80;1.80;;;;;;;11.76;97.05;99254.37;110746;1272;22913;-80
2023/10/30 03:22:16;;;;;;;4.00;0.70;;;;;;;11.81;96.83;99263.32;110785;1272;22184;-80
2023/10/30 03:24:44;;;;;;;7.30;0.80;;;;;;;11.85;96.91;99261.48;110778;1272;22345;-80
2023/10/30 03:27:12;;;;;;;4.10;0.50;;;;;;;11.88;96.65;99262.48;110645;1270;22426;-80
2023/10/30 03:29:40;;;;;;;5.50;1.00;;;;;;;11.92;96.56;99267.97;110764;1272;22145;-80
2023/10/30 03:32:08;;;;;;;3.80;0.80;;;;;;;11.96;96.49;99267.71;110800;1272;23076;-80
2023/10/30 03:34:36;;;;;;;4.40;0.80;;;;;;;11.97;96.38;99264.00;110776;1267;22260;-80
2023/10/30 03:37:05;;;;;;;4.50;0.70;;;;;;;12.00;96.24;99262.71;110754;1272;22963;-80
2023/10/30 03:39:33;;;;;;;2.60;0.70;;;;;;;12.03;96.19;99260.83;110737;1272;22185;-80
2023/10/30 03:42:01;;;;;;;3.70;0.60;;;;;;;12.06;95.94;99264.68;110732;1272;22360;-80
2023/10/30 03:44:29;;;;;;;6.00;1.00;;;;;;;12.08;95.83;99267.78;110742;1272;22167;-81
2023/10/30 03:46:58;;;;;;;3.50;0.70;;;;;;;12.11;95.78;99266.19;110678;1272;22213;-81
2023/10/30 03:49:26;;;;;;;4.40;0.90;;;;;;;12.14;95.82;99263.85;110761;1272;22303;-80
2023/10/30 03:51:54;;;;;;;4.20;0.80;;;;;;;12.15;95.66;99258.81;110784;1272;22160;-80
2023/10/30 03:54:22;;;;;;;5.20;0.80;;;;;;;12.16;95.57;99257.39;110682;1272;22244;-80
2023/10/30 03:56:51;;;;;;;4.50;0.70;;;;;;;12.17;95.54;99260.18;110795;1272;22222;-80
2023/10/30 03:59:19;;;;;;;2.20;0.60;;;;;;;12.18;95.38;99259.88;110760;1257;22306;-80
2023/10/30 04:01:47;;;;;;;3.50;0.70;;;;;;;12.19;95.39;99256.46;110804;1267;23380;-80
2023/10/30 04:04:15;;;;;;;6.80;0.60;;;;;;;12.18;95.23;99263.42;110790;1272;22245;-80
2023/10/30 04:06:43;;;;;;;2.20;0.70;;;;;;;12.19;95.06;99262.52;110701;1270;22166;-80
2023/10/30 04:09:11;;;;;;;5.70;0.80;;;;;;;12.19;95.11;99261.84;110781;1272;22183;-80
2023/10/30 04:11:45;;;;;;;3.00;0.70;;;;;;;12.19;94.94;99263.17;110745;1272;22227;-80
2023/10/30 04:14:14;;;;;;;7.10;0.70;;;;;;;12.18;94.82;99266.69;110562;1273;23215;-82
2023/10/30 04:16:53;;;;;;;5.50;0.90;;;;;;;12.17;94.73;99279.05;110703;1268;22206;-81
2023/10/30 04:19:34;;;;;;;6.20;0.80;;;;;;;12.17;94.64;99287.23;110778;1272;22795;-82
2023/10/30 04:22:28;;;;;;;5.60;0.70;;;;;;;12.16;94.79;99292.90;110788;1268;22163;-81
2023/10/30 04:24:56;;;;;;;5.00;0.80;;;;;;;12.16;94.56;99297.77;110802;1269;22161;-79
2023/10/30 04:27:25;;;;;;;8.70;0.70;;;;;;;12.16;94.59;99294.42;110768;1272;22281;-79
2023/10/30 04:29:53;;;;;;;5.50;0.90;;;;;;;12.16;94.62;99294.11;110805;1272;23011;-79
2023/10/30 04:32:21;;;;;;;3.40;0.80;;;;;;;12.15;94.50;99297.63;110693;1272;22174;-79
2023/10/30 04:34:49;;;;;;;4.90;0.80;;;;;;;12.17;94.60;99304.73;110670;1272;22228;-79
2023/10/30 04:37:20;;;;;;;4.30;0.80;;;;;;;12.18;94.61;99308.86;110811;1260;22497;-79
2023/10/30 04:39:48;;;;;;;7.40;0.90;;;;;;;12.20;94.46;99310.89;110542;1268;22208;-80
2023/10/30 04:42:17;;;;;;;9.50;0.90;;;;;;;12.22;94.52;99309.38;110586;1267;23105;-80
2023/10/30 04:44:45;;;;;;;6.60;0.80;;;;;;;12.24;94.52;99312.81;110700;1266;23207;-81
2023/10/30 04:47:15;;;;;;;3.10;0.60;;;;;;;12.25;94.42;99310.98;110666;1269;22338;-80
2023/10/30 04:49:45;;;;;;;4.00;0.70;;;;;;;12.26;94.39;99314.34;110747;1266;22392;-79
2023/10/30 04:52:13;;;;;;;3.80;0.60;;;;;;;12.26;94.44;99315.86;110736;1272;22188;-79
2023/10/30 04:54:41;;;;;;;4.80;1.10;;;;;;;12.27;94.41;99314.64;110701;1265;23642;-78
2023/10/30 04:57:09;;;;;;;7.00;1.10;;;;;;;12.28;94.36;99317.42;110660;1272;22341;-78
2023/10/30 04:59:38;;;;;;;2.70;0.80;;;;;;;12.29;94.49;99320.23;110695;1266;22338;-77
2023/10/30 05:02:06;;;;;;;3.20;0.80;;;;;;;12.30;94.35;99325.36;110656;1269;22370;-78
2023/10/30 05:04:34;;;;;;;6.20;1.10;;;;;;;12.31;94.25;99325.86;110748;1267;23043;-78
2023/10/30 05:07:03;;;;;;;7.70;1.10;;;;;;;12.29;94.33;99333.86;110744;1266;22358;-78
2023/10/30 05:09:31;;;;;;;7.90;0.90;;;;;;;12.29;94.27;99334.23;110735;1272;22996;-77
2023/10/30 05:11:59;;;;;;;4.70;1.00;;;;;;;12.30;94.43;99330.40;110693;1272;22172;-77
2023/10/30 05:14:27;;;;;;;7.60;0.80;;;;;;;12.29;94.25;99328.63;110697;1266;22226;-76
2023/10/30 05:16:55;;;;;;;4.90;0.70;;;;;;;12.28;94.12;99328.48;110678;1265;22945;-78
2023/10/30 05:19:29;;;;;;;3.10;0.80;;;;;;;12.26;94.25;99324.52;110732;1272;22422;-78
2023/10/30 05:21:57;;;;;;;3.70;0.70;;;;;;;12.25;94.29;99322.33;110661;1272;22350;-78
2023/10/30 05:24:25;;;;;;;7.80;0.90;;;;;;;12.22;94.08;99326.77;110797;1266;22438;-76
2023/10/30 05:26:53;;;;;;;4.20;0.70;;;;;;;12.18;93.90;99323.51;110707;1266;22510;-77
2023/10/30 05:29:21;;;;;;;3.20;0.80;;;;;;;12.15;94.12;99314.98;110774;1270;22421;-77
2023/10/30 05:31:49;;;;;;;6.50;0.90;;;;;;;12.13;93.88;99317.06;110714;1272;22166;-77
2023/10/30 05:34:18;;;;;;;6.50;0.90;;;;;;;12.10;93.91;99320.33;110762;1266;22281;-77
2023/10/30 05:36:46;;;;;;;3.50;0.70;;;;;;;12.07;93.81;99321.95;110837;1266;22333;-77
2023/10/30 05:39:14;;;;;;;7.20;1.00;;;;;;;12.04;93.87;99332.39;110754;1266;22373;-77
2023/10/30 05:41:42;;;;;;;7.30;0.90;;;;;;;12.00;93.75;99334.18;110794;1266;22196;-77
2023/10/30 05:44:10;;;;;;;6.20;0.70;;;;;;;11.97;93.71;99334.79;110744;1272;22213;-77
2023/10/30 05:46:38;;;;;;;5.80;0.90;;;;;;;11.95;93.87;99332.04;110781;1266;22280;-77
2023/10/30 05:49:06;;;;;;;5.60;1.00;;;;;;;11.93;93.87;99325.43;110701;1272;22319;-77
2023/10/30 05:51:34;;;;;;;6.00;0.80;;;;;;;11.90;93.57;99331.48;110720;1268;22406;-76
2023/10/30 05:54:03;;;;;;;4.90;0.90;;;;;;;11.86;93.74;99337.60;110744;1266;22186;-76
2023/10/30 05:56:31;;;;;;;11.00;1.00;;;;;;;11.85;93.85;99339.69;110719;1272;22309;-76
2023/10/30 05:59:02;;;;;;;4.60;0.90;;;;;;;11.85;93.89;99335.81;110701;1267;23284;-75
2023/10/30 06:01:30;;;;;;;8.80;1.90;;;;;;;11.84;93.89;99328.85;110655;1272;22267;-76
2023/10/30 06:03:58;;;;;;;9.70;1.90;;;;;;;11.82;94.00;99325.45;110627;1272;22285;-76
2023/10/30 06:06:26;;;;;;;9.90;1.70;;;;;;;11.81;94.00;99324.59;110728;1267;23689;-77
2023/10/30 06:08:54;;;;;;;7.20;1.70;;;;;;;11.80;94.15;99328.55;110663;1267;22383;-77
2023/10/30 06:11:22;;;;;;;12.20;2.30;;;;;;;11.80;94.22;99332.01;110654;1266;24077;-77
2023/10/30 06:13:50;;;;;;;17.70;3.50;;;;;;;11.79;94.29;99337.70;110659;1266;22384;-77
2023/10/30 06:16:19;;;;;;;14.20;3.90;;;;;;;11.77;94.18;99344.04;110663;1266;22256;-77
2023/10/30 06:18:47;;;;;;;14.50;4.00;;;;;;;11.72;94.31;99349.80;110716;1265;22351;-77
2023/10/30 06:21:16;;;;;;;19.60;4.50;;;;;;;11.70;94.46;99355.04;110613;1265;22415;-77
2023/10/30 06:23:44;;;;;;;26.00;8.20;;;;;;;11.70;94.70;99361.64;110626;1266;22158;-77
2023/10/30 06:26:14;;;;;;;26.40;8.80;;;;;;;11.69;94.64;99371.71;110679;1266;22410;-77
2023/10/30 06:28:42;;;;;;;25.10;7.60;;;;;;;11.69;94.71;99381.20;110699;1265;22310;-77
2023/10/30 06:31:20;;;;;;;21.00;4.90;;;;;;;11.68;94.80;99381.46;110656;1272;23104;-77
2023/10/30 06:33:48;;;;;;;19.20;4.50;;;;;;;11.71;95.09;99383.70;110685;1272;23006;-78
2023/10/30 06:36:17;;;;;;;20.40;4.70;;;;;;;11.73;95.12;99391.39;110704;1266;22181;-77
2023/10/30 06:38:45;;;;;;;16.70;4.80;;;;;;;11.76;95.25;99403.63;110752;1272;22246;-77
2023/10/30 06:41:13;;;;;;;23.60;7.20;;;;;;;11.78;95.41;99398.76;110700;1265;22413;-77
2023/10/30 06:43:44;;;;;;;22.70;6.20;;;;;;;11.81;95.47;99380.81;110752;1266;22207;-77
2023/10/30 06:46:12;;;;;;;25.90;7.60;;;;;;;11.83;95.72;99369.73;110784;1267;22447;-78
2023/10/30 06:48:40;;;;;;;39.40;12.70;;;;;;;11.86;95.87;99367.39;110629;1272;22272;-77
2023/10/30 06:51:08;;;;;;;35.40;10.30;;;;;;;11.90;96.05;99368.27;110627;1272;23023;-77
2023/10/30 06:53:36;;;;;;;37.30;10.40;;;;;;;11.94;96.13;99371.09;110666;1260;22218;-77
2023/10/30 06:56:06;;;;;;;42.80;11.00;;;;;;;11.97;96.34;99386.20;110731;1270;22314;-77
2023/10/30 06:58:35;;;;;;;28.80;7.80;;;;;;;12.02;96.33;99391.95;110724;1272;22383;-77
2023/10/30 07:01:03;;;;;;;31.60;8.10;;;;;;;12.05;96.32;99394.54;110721;1260;22432;-77
2023/10/30 07:03:32;;;;;;;25.90;6.40;;;;;;;12.09;96.47;99406.39;110745;1272;22299;-77
2023/10/30 07:06:00;;;;;;;33.50;7.70;;;;;;;12.12;96.49;99406.64;110732;1272;22151;-77
2023/10/30 07:08:29;;;;;;;25.10;7.10;;;;;;;12.17;96.71;99403.39;110761;1268;22271;-77
2023/10/30 07:10:57;;;;;;;29.50;7.10;;;;;;;12.22;96.79;99404.70;110655;1272;22374;-77
2023/10/30 07:13:25;;;;;;;23.30;6.40;;;;;;;12.27;96.92;99400.52;110769;1272;22299;-77
2023/10/30 07:15:53;;;;;;;17.90;5.10;;;;;;;12.31;97.00;99398.13;110764;1272;22694;-77
2023/10/30 07:18:22;;;;;;;11.60;2.30;;;;;;;12.35;97.05;99401.19;110760;1260;23053;-77
2023/10/30 07:20:50;;;;;;;10.30;2.30;;;;;;;12.41;97.05;99407.73;110737;1272;23114;-78
2023/10/30 07:23:20;;;;;;;9.10;2.00;;;;;;;12.46;97.06;99412.34;110769;1272;22208;-77
2023/10/30 07:25:48;;;;;;;6.50;1.50;;;;;;;12.51;97.17;99406.84;110627;1272;22672;-77
2023/10/30 07:28:16;;;;;;;6.80;1.20;;;;;;;12.57;97.06;99398.33;110787;1268;22166;-78
2023/10/30 07:30:44;;;;;;;7.10;1.70;;;;;;;12.61;97.19;99385.23;110762;1257;22190;-77
2023/10/30 07:33:13;;;;;;;13.10;1.90;;;;;;;12.65;97.06;99377.52;110754;1272;22218;-77
2023/10/30 07:35:41;;;;;;;6.50;1.30;;;;;;;12.72;96.97;99378.17;110727;1272;22271;-77
2023/10/30 07:38:09;;;;;;;10.20;1.70;;;;;;;12.78;97.01;99379.16;110759;1272;22381;-78
2023/10/30 07:40:37;;;;;;;12.30;1.40;;;;;;;12.83;96.95;99381.29;110740;1272;22981;-77
2023/10/30 07:43:05;;;;;;;7.40;1.20;;;;;;;12.89;97.09;99388.25;110775;1272;23096;-78
2023/10/30 07:45:39;;;;;;;3.50;1.00;;;;;;;12.95;96.67;99398.21;110765;1269;22421;-77
2023/10/30 07:48:07;;;;;;;5.10;1.10;;;;;;;13.01;96.40;99404.65;110758;1272;22404;-78
2023/10/30 07:50:37;;;;;;;4.40;1.20;;;;;;;13.08;96.34;99400.08;110772;1272;22206;-77
2023/10/30 07:53:05;;;;;;;4.90;0.80;;;;;;;13.14;95.72;99404.77;110669;1269;22224;-78
2023/10/30 07:55:33;;;;;;;4.10;0.90;;;;;;;13.22;95.68;99412.17;110759;1272;22386;-78
2023/10/30 07:58:04;;;;;;;4.30;1.00;;;;;;;13.28;95.58;99420.30;110755;1272;22179;-77
2023/10/30 08:00:32;;;;;;;3.60;0.90;;;;;;;13.33;95.39;99426.03;110745;1272;22666;-77
2023/10/30 08:03:00;;;;;;;4.90;1.00;;;;;;;13.39;95.38;99434.73;110668;1272;22139;-77
2023/10/30 08:05:30;;;;;;;3.30;0.80;;;;;;;13.44;95.20;99437.54;110763;1272;22214;-77
2023/10/30 08:07:58;;;;;;;8.60;0.80;;;;;;;13.49;95.14;99435.72;110754;1272;23041;-78
2023/10/30 08:10:26;;;;;;;6.40;0.80;;;;;;;13.55;94.62;99430.90;110753;1272;22329;-78
2023/10/30 08:12:55;;;;;;;5.50;0.90;;;;;;;13.61;94.20;99429.64;110748;1272;22733;-77
2023/10/30 08:15:23;;;;;;;3.80;0.50;;;;;;;13.67;94.12;99420.94;110775;1269;22222;-77
2023/10/30 08:17:51;;;;;;;8.10;0.90;;;;;;;13.74;94.14;99421.86;110524;1272;22221;-77
2023/10/30 08:20:19;;;;;;;7.40;0.80;;;;;;;13.80;93.96;99429.41;110750;1272;22183;-77
2023/10/30 08:22:49;;;;;;;4.90;1.00;;;;;;;13.85;93.62;99432.29;110746;1272;22682;-77
2023/10/30 08:25:17;;;;;;;3.80;0.50;;;;;;;13.89;93.67;99432.77;110692;1272;22201;-77
2023/10/30 08:27:45;;;;;;;4.20;0.80;;;;;;;13.92;93.48;99436.21;110757;1266;22413;-77
2023/10/30 08:30:15;;;;;;;4.60;0.70;;;;;;;13.96;93.54;99442.52;110760;1268;22228;-77
2023/10/30 08:32:43;;;;;;;5.70;0.60;;;;;;;14.00;93.30;99438.46;110743;1270;22960;-77
2023/10/30 08:35:11;;;;;;;2.80;0.80;;;;;;;14.05;93.18;99442.46;110788;1272;22715;-77
2023/10/30 08:37:39;;;;;;;3.10;0.70;;;;;;;14.09;93.10;99438.33;110696;1272;23023;-77
2023/10/30 08:40:11;;;;;;;4.00;0.70;;;;;;;14.13;92.97;99440.48;110749;1262;22213;-77
2023/10/30 08:42:39;;;;;;;5.90;0.70;;;;;;;14.16;92.94;99445.58;110759;1272;22196;-77
2023/10/30 08:45:10;;;;;;;6.00;0.70;;;;;;;14.21;93.01;99442.02;110776;1272;22315;-77
2023/10/30 08:47:38;;;;;;;3.40;0.60;;;;;;;14.25;92.85;99438.96;110778;1266;22459;-77
2023/10/30 08:50:09;;;;;;;5.50;0.80;;;;;;;14.29;92.71;99444.71;110748;1272;23298;-77
2023/10/30 08:52:40;;;;;;;4.70;0.70;;;;;;;14.34;92.82;99448.30;110738;1272;22953;-77
2023/10/30 08:55:09;;;;;;;6.60;0.50;;;;;;;14.39;92.68;99454.70;110764;1266;22425;-77
2023/10/30 08:57:37;;;;;;;3.80;0.60;;;;;;;14.44;92.54;99452.96;110776;1272;22545;-77
2023/10/30 09:00:07;;;;;;;8.60;0.60;;;;;;;14.49;92.34;99454.95;110751;1272;22344;-78
2023/10/30 09:02:36;;;;;;;3.90;0.60;;;;;;;14.54;92.26;99451.80;110724;1272;23095;-77
2023/10/30 09:05:08;;;;;;;5.80;0.70;;;;;;;14.59;92.17;99453.27;110801;1260;22479;-77
2023/10/30 09:07:36;;;;;;;3.50;0.70;;;;;;;14.63;91.99;99456.81;110798;1261;22364;-77
2023/10/30 09:10:06;;;;;;;7.40;0.70;;;;;;;14.66;91.81;99455.45;110784;1269;23128;-77
2023/10/30 09:12:35;;;;;;;4.30;0.50;;;;;;;14.70;91.79;99453.94;110803;1272;22375;-78
2023/10/30 09:15:04;;;;;;;2.80;0.50;;;;;;;14.72;91.71;99454.02;110776;1272;22169;-78
2023/10/30 09:17:33;;;;;;;2.20;0.60;;;;;;;14.75;91.59;99459.40;110767;1272;22442;-78
2023/10/30 09:20:06;;;;;;;4.10;0.50;;;;;;;14.79;91.41;99458.14;110720;1271;22221;-78
2023/10/30 09:22:34;;;;;;;4.30;0.70;;;;;;;14.84;91.31;99455.02;110799;1272;22255;-78
2023/10/30 09:25:04;;;;;;;5.70;0.70;;;;;;;14.87;90.97;99454.05;110796;1272;22269;-78
2023/10/30 09:27:33;;;;;;;3.30;0.70;;;;;;;14.93;90.96;99462.02;110825;1272;22156;-78
2023/10/30 09:30:03;;;;;;;3.90;0.50;;;;;;;14.98;90.69;99466.05;110718;1272;22725;-78
2023/10/30 09:32:32;;;;;;;5.80;0.60;;;;;;;15.03;90.48;99460.98;110770;1272;23041;-78
2023/10/30 09:35:00;;;;;;;3.00;0.50;;;;;;;15.11;90.25;99456.39;110798;1272;22146;-78
2023/10/30 09:37:30;;;;;;;3.30;0.60;;;;;;;15.18;90.06;99452.42;110772;1272;22216;-78
2023/10/30 09:40:03;;;;;;;3.90;0.40;;;;;;;15.25;89.53;99448.09;110704;1269;22290;-77
2023/10/30 09:42:31;;;;;;;2.20;0.50;;;;;;;15.31;89.37;99443.56;110761;1272;22156;-78
2023/10/30 09:45:01;;;;;;;2.90;0.40;;;;;;;15.38;89.17;99441.48;110819;1266;22210;-77
2023/10/30 09:47:30;;;;;;;3.20;0.50;;;;;;;15.45;88.57;99439.27;110802;1272;22305;-78
2023/10/30 09:49:59;;;;;;;3.30;0.50;;;;;;;15.50;88.57;99428.52;110779;1265;22458;-78
2023/10/30 09:52:31;;;;;;;4.30;0.70;;;;;;;15.53;88.38;99418.59;110788;1272;22974;-78
2023/10/30 09:55:04;;;;;;;3.70;0.70;;;;;;;15.59;88.35;99425.84;110788;1269;22205;-78
2023/10/30 09:57:33;;;;;;;2.30;0.40;;;;;;;15.66;88.05;99432.58;110691;1265;22955;-78
2023/10/30 10:00:05;;;;;;;2.70;0.50;;;;;;;15.72;87.57;99433.25;110772;1269;22311;-78
2023/10/30 10:02:34;;;;;;;6.50;0.60;;;;;;;15.77;87.42;99431.96;110704;1260;22219;-78
2023/10/30 10:05:02;;;;;;;2.10;0.60;;;;;;;15.81;87.00;99441.77;110788;1272;22458;-78
2023/10/30 10:07:31;;;;;;;3.40;0.40;;;;;;;15.86;87.10;99447.44;110800;1272;22220;-78
2023/10/30 10:10:02;;;;;;;2.20;0.40;;;;;;;15.92;87.14;99446.73;110762;1272;22238;-78
2023/10/30 10:12:34;;;;;;;7.80;0.50;;;;;;;15.98;86.71;99449.54;110751;1272;23190;-78
2023/10/30 10:15:07;;;;;;;3.10;0.40;;;;;;;16.04;86.22;99450.74;110800;1272;22204;-78
2023/10/30 10:17:45;;;;;;;5.50;0.50;;;;;;;16.10;86.16;99445.52;110790;1272;22187;-78
2023/10/30 10:20:13;;;;;;;9.20;0.40;;;;;;;16.16;85.69;99446.60;110594;1265;22203;-78
2023/10/30 10:22:42;;;;;;;6.00;0.90;;;;;;;16.22;85.53;99446.30;110774;1272;22238;-78
2023/10/30 10:25:11;;;;;;;3.70;0.30;;;;;;;16.27;85.25;99445.14;110669;1272;22218;-78
2023/10/30 10:27:40;;;;;;;3.20;0.40;;;;;;;16.33;84.75;99440.13;110761;1272;22449;-78
2023/10/30 10:30:10;;;;;;;1.20;0.30;;;;;;;16.37;84.77;99431.66;110796;1250;22339;-78
2023/10/30 10:32:38;;;;;;;1.60;0.30;;;;;;;16.39;84.21;99423.59;110766;1261;22207;-78
2023/10/30 10:35:08;;;;;;;3.20;0.50;;;;;;;16.42;83.94;99423.13;110754;1266;22325;-78
2023/10/30 10:37:36;;;;;;;2.30;0.40;;;;;;;16.44;83.79;99421.96;110727;1272;22365;-78
2023/10/30 10:40:05;;;;;;;3.70;0.50;;;;;;;16.45;83.63;99415.73;110727;1272;22880;-78
2023/10/30 10:42:37;;;;;;;1.60;0.40;;;;;;;16.52;83.30;99413.09;110667;1269;22158;-78
2023/10/30 10:45:07;;;;;;;3.20;0.50;;;;;;;16.54;83.29;99411.09;110693;1272;23068;-78
2023/10/30 10:47:36;;;;;;;2.50;0.40;;;;;;;16.57;83.04;99403.16;110760;1268;22181;-78
2023/10/30 10:50:05;;;;;;;3.50;0.50;;;;;;;16.57;82.48;99397.48;110709;1272;24979;-78
2023/10/30 10:52:35;;;;;;;2.80;0.40;;;;;;;16.60;82.51;99397.70;110732;1272;22736;-78
2023/10/30 10:55:05;;;;;;;3.30;0.40;;;;;;;16.64;82.53;99402.83;110715;1272;22527;-78
2023/10/30 10:57:44;;;;;;;3.50;0.50;;;;;;;16.70;81.99;99398.15;110741;1272;22160;-78
2023/10/30 11:00:15;;;;;;;3.90;0.40;;;;;;;16.74;81.96;99399.91;110715;1269;22346;-78
2023/10/30 11:02:47;;;;;;;3.40;0.50;;;;;;;16.78;81.92;99392.45;110746;1266;22203;-78
2023/10/30 11:05:17;;;;;;;4.40;0.40;;;;;;;16.81;81.69;99394.44;110679;1272;22181;-78
2023/10/30 11:07:52;;;;;;;5.60;0.50;;;;;;;16.84;80.91;99390.98;110701;1268;23161;-78
2023/10/30 11:10:29;;;;;;;11.60;0.50;;;;;;;16.88;80.92;99388.30;110640;1266;22200;-78
2023/10/30 11:13:10;;;;;;;1.70;0.40;;;;;;;16.91;80.63;99395.66;110717;1272;23094;-78
2023/10/30 11:15:49;;;;;;;5.00;0.50;;;;;;;16.94;80.47;99391.89;110724;1272;22272;-78
2023/10/30 11:18:21;;;;;;;1.70;0.40;;;;;;;16.97;80.72;99391.26;110739;1272;22195;-78
2023/10/30 11:21:06;;;;;;;3.10;0.50;;;;;;;16.98;80.63;99384.46;110723;1272;22280;-78
2023/10/30 11:23:55;;;;;;;6.40;0.40;;;;;;;16.99;80.01;99370.75;110684;1272;22204;-78
2023/10/30 11:26:41;;;;;;;5.10;0.40;;;;;;;17.04;80.13;99372.35;110757;1268;22181;-78
2023/10/30 11:29:16;;;;;;;7.10;0.60;;;;;;;17.06;80.01;99373.80;110756;1272;23027;-78
2023/10/30 11:32:05;;;;;;;2.10;0.40;;;;;;;17.08;79.91;99368.98;110669;1272;22356;-78